Time;durP1;ratioP1;P1;durP2;ratioP2;P2;SDS_P1;SDS_P2;PMS_P1;PMS_P2;Temp;Humidity;BMP_temperature;BMP_pressure;BME280_temperature;BME280_humidity;BME280_pressure;Samples;Min_cycle;Max_cycle;Signal;HPM_P1;HPM_P2
2022/03/13 00:02:11;;;;;;;1.80;1.30;;;8.50;99.90;;;;;;5060786;28;20258;-60
2022/03/13 00:04:38;;;;;;;2.15;1.27;;;8.50;99.90;;;;;;5059922;28;20064;-60
2022/03/13 00:07:19;;;;;;;2.33;1.92;;;8.50;99.90;;;;;;5060876;28;20467;-60
2022/03/13 00:09:49;;;;;;;3.22;1.40;;;8.50;99.90;;;;;;5060425;28;20052;-60
2022/03/13 00:12:18;;;;;;;1.65;1.45;;;8.50;99.90;;;;;;5062182;28;20524;-60
2022/03/13 00:14:46;;;;;;;1.90;1.33;;;8.60;99.90;;;;;;5060503;28;20048;-60
2022/03/13 00:17:15;;;;;;;1.90;1.45;;;8.60;99.90;;;;;;5060863;28;20073;-60
2022/03/13 00:19:42;;;;;;;2.22;1.48;;;8.60;99.90;;;;;;5058801;28;20463;-59
2022/03/13 00:22:10;;;;;;;2.25;1.40;;;8.60;99.90;;;;;;5059908;28;20080;-59
2022/03/13 00:24:36;;;;;;;3.05;1.58;;;8.60;99.90;;;;;;5060194;28;20631;-60
2022/03/13 00:27:03;;;;;;;3.17;1.40;;;8.60;99.90;;;;;;5060140;28;20059;-60
2022/03/13 00:29:30;;;;;;;1.90;1.33;;;8.70;99.90;;;;;;5060391;28;20403;-60
2022/03/13 00:31:57;;;;;;;2.20;1.27;;;8.70;99.90;;;;;;5042489;28;20135;-60
2022/03/13 00:34:24;;;;;;;3.63;1.88;;;8.70;99.90;;;;;;5060137;28;20443;-60
2022/03/13 00:36:51;;;;;;;1.73;1.40;;;8.70;99.90;;;;;;5061083;28;20067;-60
2022/03/13 00:39:17;;;;;;;1.85;1.40;;;8.70;99.90;;;;;;5060663;28;20118;-58
2022/03/13 00:41:46;;;;;;;1.40;1.13;;;8.70;99.90;;;;;;5061312;28;20835;-60
2022/03/13 00:44:13;;;;;;;2.85;1.67;;;8.80;99.90;;;;;;5060178;28;20163;-60
2022/03/13 00:46:39;;;;;;;1.45;1.13;;;8.90;99.90;;;;;;5060846;28;20087;-60
2022/03/13 00:49:06;;;;;;;1.63;1.05;;;8.90;99.90;;;;;;5059974;28;20436;-60
2022/03/13 00:51:33;;;;;;;1.70;1.40;;;8.90;99.90;;;;;;5061244;28;20556;-60
2022/03/13 00:54:00;;;;;;;3.80;1.58;;;8.90;99.90;;;;;;5060630;28;20507;-60
2022/03/13 00:56:27;;;;;;;2.20;1.25;;;8.90;99.90;;;;;;5061145;28;20136;-60
2022/03/13 00:58:53;;;;;;;2.42;1.50;;;8.90;99.90;;;;;;5061078;28;20127;-60
2022/03/13 01:01:20;;;;;;;2.00;1.50;;;9.00;99.90;;;;;;5061413;28;20131;-60
2022/03/13 01:03:49;;;;;;;1.77;1.42;;;9.00;99.90;;;;;;5059651;28;20079;-60
2022/03/13 01:06:16;;;;;;;2.05;1.17;;;9.00;99.90;;;;;;5060171;28;20131;-60
2022/03/13 01:08:46;;;;;;;2.47;1.30;;;9.00;99.90;;;;;;5060914;28;20455;-60
2022/03/13 01:11:14;;;;;;;2.17;1.30;;;9.00;99.90;;;;;;5061611;28;20106;-60
2022/03/13 01:13:41;;;;;;;2.05;1.20;;;9.10;99.90;;;;;;5061131;28;20136;-59
2022/03/13 01:16:15;;;;;;;2.55;1.42;;;9.10;99.90;;;;;;5061484;28;20044;-60
2022/03/13 01:18:50;;;;;;;2.28;1.55;;;9.10;99.90;;;;;;5060230;28;20048;-60
2022/03/13 01:21:17;;;;;;;2.50;1.23;;;9.10;99.90;;;;;;5060032;28;20131;-60
2022/03/13 01:24:14;;;;;;;2.15;1.42;;;9.00;99.90;;;;;;5061293;28;20110;-60
2022/03/13 01:26:41;;;;;;;1.77;1.13;;;9.00;99.90;;;;;;5038250;28;20096;-60
2022/03/13 01:29:10;;;;;;;2.50;1.27;;;9.00;99.90;;;;;;5039231;28;20139;-60
2022/03/13 01:31:39;;;;;;;1.75;1.30;;;8.90;99.90;;;;;;5053669;28;20048;-60
2022/03/13 01:34:11;;;;;;;2.08;1.42;;;8.80;99.90;;;;;;5059721;28;20053;-60
2022/03/13 01:36:38;;;;;;;1.83;1.38;;;8.80;99.90;;;;;;5061074;28;20139;-60
2022/03/13 01:39:06;;;;;;;2.70;1.13;;;8.80;99.90;;;;;;5061246;28;20161;-59
2022/03/13 01:41:34;;;;;;;1.40;1.02;;;8.70;99.90;;;;;;5060901;28;20079;-60
2022/03/13 01:44:01;;;;;;;2.08;1.30;;;8.70;99.90;;;;;;5060041;28;20053;-60
2022/03/13 01:46:28;;;;;;;2.13;1.25;;;8.60;99.90;;;;;;5060168;28;20052;-60
2022/03/13 01:49:03;;;;;;;1.52;1.17;;;8.60;99.90;;;;;;5061749;28;20049;-60
2022/03/13 01:51:30;;;;;;;2.25;1.27;;;8.50;99.90;;;;;;5064074;28;20044;-60
2022/03/13 01:54:05;;;;;;;2.05;1.38;;;8.50;99.90;;;;;;5064071;28;20049;-60
2022/03/13 01:56:33;;;;;;;2.05;1.42;;;8.50;99.90;;;;;;5064368;28;20083;-60
2022/03/13 01:59:00;;;;;;;2.58;1.42;;;8.50;99.90;;;;;;5063378;28;20128;-60
2022/03/13 02:01:27;;;;;;;3.53;1.40;;;8.40;99.90;;;;;;5063663;28;20507;-60
2022/03/13 02:03:54;;;;;;;1.35;1.20;;;8.40;99.90;;;;;;5045187;28;20112;-60
2022/03/13 02:06:23;;;;;;;2.05;1.25;;;8.40;99.90;;;;;;5063364;28;20380;-60
2022/03/13 02:08:50;;;;;;;2.45;1.50;;;8.40;99.90;;;;;;5064264;28;20049;-60
2022/03/13 02:11:24;;;;;;;1.60;1.23;;;8.40;99.90;;;;;;5063704;28;20044;-59
2022/03/13 02:13:53;;;;;;;2.10;1.50;;;8.40;99.90;;;;;;5063340;28;20385;-60
2022/03/13 02:16:20;;;;;;;2.03;1.52;;;8.30;99.90;;;;;;5065685;28;20662;-60
2022/03/13 02:18:48;;;;;;;1.90;1.30;;;8.30;99.90;;;;;;5066005;28;20084;-60
2022/03/13 02:21:19;;;;;;;2.80;1.60;;;8.30;99.90;;;;;;5066403;28;20078;-60
2022/03/13 02:23:46;;;;;;;1.60;1.00;;;8.30;99.90;;;;;;5066838;28;20098;-60
2022/03/13 02:26:13;;;;;;;3.17;1.20;;;8.20;99.90;;;;;;5067105;28;20394;-60
2022/03/13 02:28:42;;;;;;;2.03;1.30;;;8.20;99.90;;;;;;5064811;28;20095;-59
2022/03/13 02:31:13;;;;;;;2.03;1.25;;;8.10;99.90;;;;;;5049046;28;20045;-59
2022/03/13 02:33:39;;;;;;;2.08;1.35;;;8.10;99.90;;;;;;5062908;28;20419;-60
2022/03/13 02:36:31;;;;;;;2.78;1.60;;;8.10;99.90;;;;;;5064772;28;20087;-60
2022/03/13 02:39:01;;;;;;;1.90;1.25;;;8.10;99.90;;;;;;5067587;28;20141;-60
2022/03/13 02:41:28;;;;;;;2.08;1.13;;;8.10;99.90;;;;;;5068921;28;20072;-60
2022/03/13 02:43:56;;;;;;;2.58;1.38;;;8.10;99.90;;;;;;5067871;28;20045;-60
2022/03/13 02:46:24;;;;;;;2.22;1.40;;;8.10;99.90;;;;;;5067542;28;20083;-60
2022/03/13 02:48:51;;;;;;;2.35;1.60;;;8.00;99.90;;;;;;5066200;28;20139;-60
2022/03/13 02:51:18;;;;;;;1.75;1.23;;;8.10;99.90;;;;;;5066557;28;20053;-60
2022/03/13 02:53:45;;;;;;;1.70;1.20;;;8.10;99.90;;;;;;5066692;28;20440;-60
2022/03/13 02:56:12;;;;;;;2.25;1.30;;;8.10;99.90;;;;;;5066722;28;20590;-59
2022/03/13 02:58:39;;;;;;;4.22;1.58;;;8.20;99.90;;;;;;5066814;28;20048;-60
2022/03/13 03:01:05;;;;;;;1.85;1.45;;;8.20;99.90;;;;;;5049075;28;20131;-59
2022/03/13 03:03:32;;;;;;;2.60;1.23;;;8.20;99.90;;;;;;5065314;28;20571;-60
2022/03/13 03:05:59;;;;;;;2.83;1.17;;;8.20;99.90;;;;;;5066300;28;20135;-60
2022/03/13 03:08:26;;;;;;;1.80;1.33;;;8.30;99.90;;;;;;5066394;28;20432;-60
2022/03/13 03:10:52;;;;;;;3.45;1.58;;;8.40;99.90;;;;;;5066350;28;20053;-60
2022/03/13 03:13:20;;;;;;;2.42;1.30;;;8.40;99.90;;;;;;5066226;28;20657;-60
2022/03/13 03:15:46;;;;;;;1.75;1.13;;;8.40;99.90;;;;;;5067000;28;20114;-60
2022/03/13 03:18:13;;;;;;;1.70;1.50;;;8.40;99.90;;;;;;5065561;28;20045;-60
2022/03/13 03:20:40;;;;;;;4.18;1.88;;;8.50;99.90;;;;;;5048353;28;20084;-60
2022/03/13 03:23:07;;;;;;;1.75;1.02;;;8.40;99.90;;;;;;5065958;28;20052;-60
2022/03/13 03:25:34;;;;;;;2.13;1.73;;;8.40;99.90;;;;;;5066727;28;20056;-60
2022/03/13 03:28:00;;;;;;;2.75;1.38;;;8.40;99.90;;;;;;5046884;28;20148;-60
2022/03/13 03:30:29;;;;;;;2.10;1.40;;;8.40;99.90;;;;;;5066215;28;20124;-60
2022/03/13 03:32:56;;;;;;;1.52;1.30;;;8.50;99.90;;;;;;5047874;28;20443;-60
2022/03/13 03:35:24;;;;;;;2.15;1.58;;;8.50;99.90;;;;;;5064877;28;20056;-60
2022/03/13 03:37:51;;;;;;;2.95;1.30;;;8.50;99.90;;;;;;5066492;28;20118;-60
2022/03/13 03:40:26;;;;;;;2.05;1.63;;;8.50;99.90;;;;;;5066042;28;20127;-60
2022/03/13 03:42:57;;;;;;;4.22;2.00;;;8.50;99.90;;;;;;5065527;28;20078;-60
2022/03/13 03:45:24;;;;;;;1.77;1.45;;;8.60;99.90;;;;;;5066291;28;20053;-60
2022/03/13 03:47:51;;;;;;;1.98;1.55;;;8.60;99.90;;;;;;5065133;28;20095;-60
2022/03/13 03:50:18;;;;;;;3.47;1.40;;;8.60;99.90;;;;;;5046497;28;20095;-60
2022/03/13 03:52:45;;;;;;;1.48;1.27;;;8.60;99.90;;;;;;5065880;28;20079;-60
2022/03/13 03:55:11;;;;;;;2.20;1.33;;;8.70;99.90;;;;;;5065892;28;20060;-60
2022/03/13 03:57:38;;;;;;;1.80;1.30;;;8.70;99.90;;;;;;5031400;28;20072;-60
2022/03/13 04:00:06;;;;;;;1.83;1.58;;;8.80;99.90;;;;;;5065942;28;20340;-61
2022/03/13 04:02:33;;;;;;;2.63;1.80;;;8.80;99.90;;;;;;5047419;28;20077;-60
2022/03/13 04:05:03;;;;;;;2.60;1.52;;;8.80;99.90;;;;;;5064665;28;20052;-60
2022/03/13 04:07:30;;;;;;;2.78;1.77;;;8.90;99.90;;;;;;5065737;28;20098;-60
2022/03/13 04:09:57;;;;;;;2.67;1.50;;;8.90;99.90;;;;;;5064832;28;20080;-60
2022/03/13 04:12:25;;;;;;;1.73;1.40;;;8.90;99.90;;;;;;5065247;28;20098;-60
2022/03/13 04:14:52;;;;;;;2.67;2.28;;;9.00;99.90;;;;;;5064782;28;20049;-60
2022/03/13 04:17:19;;;;;;;2.67;1.45;;;9.00;99.90;;;;;;5065337;28;20106;-60
2022/03/13 04:19:46;;;;;;;2.53;1.80;;;9.10;99.90;;;;;;5063303;28;20087;-60
2022/03/13 04:22:14;;;;;;;2.70;1.80;;;9.10;99.90;;;;;;5065372;28;20049;-60
2022/03/13 04:24:41;;;;;;;2.60;1.90;;;9.10;99.90;;;;;;5064825;28;20564;-59
2022/03/13 04:27:09;;;;;;;3.35;1.80;;;9.10;99.90;;;;;;5065047;28;20464;-60
2022/03/13 04:29:35;;;;;;;2.83;1.90;;;9.10;99.90;;;;;;5064413;28;20135;-60
2022/03/13 04:32:04;;;;;;;2.10;1.60;;;9.20;99.90;;;;;;5064974;28;20084;-60
2022/03/13 04:34:31;;;;;;;2.38;1.70;;;9.20;99.90;;;;;;5063783;28;20113;-60
2022/03/13 04:37:00;;;;;;;3.83;2.45;;;9.20;99.90;;;;;;5064840;28;20051;-60
2022/03/13 04:39:27;;;;;;;3.00;2.03;;;9.20;99.90;;;;;;5064265;28;20084;-60
2022/03/13 04:41:54;;;;;;;2.22;1.88;;;9.20;99.90;;;;;;5065743;28;20084;-60
2022/03/13 04:44:21;;;;;;;1.90;1.70;;;9.30;99.90;;;;;;5064461;28;20156;-60
2022/03/13 04:46:48;;;;;;;4.25;1.83;;;9.30;99.90;;;;;;5064814;28;20052;-59
2022/03/13 04:49:15;;;;;;;2.60;1.80;;;9.30;99.90;;;;;;5063765;28;20084;-60
2022/03/13 04:51:41;;;;;;;2.22;1.92;;;9.30;99.90;;;;;;5055789;28;21151;-59
2022/03/13 04:54:08;;;;;;;2.40;1.63;;;9.30;99.90;;;;;;5035675;28;20048;-60
2022/03/13 04:56:35;;;;;;;2.00;1.63;;;9.30;99.90;;;;;;5053145;28;20045;-60
2022/03/13 04:59:02;;;;;;;2.63;1.98;;;9.30;99.90;;;;;;5044576;28;20088;-60
2022/03/13 05:01:29;;;;;;;3.50;2.13;;;9.30;99.90;;;;;;5050248;28;20188;-60
2022/03/13 05:03:56;;;;;;;2.35;1.85;;;9.30;99.90;;;;;;5059068;28;20090;-60
2022/03/13 05:06:22;;;;;;;2.28;1.63;;;9.20;99.90;;;;;;5058649;28;20187;-60
2022/03/13 05:08:49;;;;;;;2.65;2.03;;;9.20;99.90;;;;;;5030220;28;20136;-59
2022/03/13 05:11:17;;;;;;;2.00;1.55;;;9.20;99.90;;;;;;5065117;28;20096;-60
2022/03/13 05:13:44;;;;;;;3.00;2.25;;;9.20;99.90;;;;;;5064150;28;20136;-60
2022/03/13 05:16:12;;;;;;;2.63;1.90;;;9.20;99.90;;;;;;5065026;28;20443;-60
2022/03/13 05:18:39;;;;;;;3.13;2.33;;;9.20;99.90;;;;;;5063671;28;20048;-60
2022/03/13 05:21:06;;;;;;;2.88;2.15;;;9.10;99.90;;;;;;5064132;28;20080;-60
2022/03/13 05:23:32;;;;;;;3.38;2.42;;;9.10;99.90;;;;;;5065042;28;20080;-60
2022/03/13 05:25:59;;;;;;;2.75;1.67;;;9.10;99.90;;;;;;5064839;28;20079;-60
2022/03/13 05:28:26;;;;;;;2.53;1.90;;;9.10;99.90;;;;;;5064521;28;20590;-60
2022/03/13 05:30:53;;;;;;;3.15;2.03;;;9.10;99.90;;;;;;5065280;28;20866;-60
2022/03/13 05:33:20;;;;;;;3.40;1.92;;;9.10;99.90;;;;;;5063803;28;20048;-60
2022/03/13 05:35:47;;;;;;;2.25;1.73;;;9.10;99.90;;;;;;5064187;28;20092;-61
2022/03/13 05:38:14;;;;;;;2.50;1.95;;;9.00;99.90;;;;;;5065116;28;20600;-60
2022/03/13 05:40:40;;;;;;;3.28;1.75;;;9.10;99.90;;;;;;5064970;28;20048;-58
2022/03/13 05:43:07;;;;;;;2.75;2.00;;;9.00;99.90;;;;;;5064537;28;20502;-60
2022/03/13 05:45:36;;;;;;;2.70;1.73;;;9.00;99.90;;;;;;5064939;28;20091;-60
2022/03/13 05:48:09;;;;;;;2.95;1.98;;;9.00;99.90;;;;;;5060979;28;20056;-60
2022/03/13 05:50:36;;;;;;;3.33;2.38;;;9.00;99.90;;;;;;5042911;28;20128;-60
2022/03/13 05:53:03;;;;;;;2.63;1.60;;;9.00;99.90;;;;;;5054233;28;20083;-60
2022/03/13 05:55:30;;;;;;;3.05;1.63;;;9.00;99.90;;;;;;5056808;28;20169;-59
2022/03/13 05:57:58;;;;;;;2.08;1.67;;;9.00;99.90;;;;;;5052754;28;20049;-60
2022/03/13 06:00:25;;;;;;;2.88;1.60;;;9.00;99.90;;;;;;5053312;28;20075;-59
2022/03/13 06:02:53;;;;;;;2.88;1.92;;;8.90;99.90;;;;;;5042873;28;20645;-59
2022/03/13 06:05:20;;;;;;;4.63;2.10;;;8.90;99.90;;;;;;5054885;28;20563;-60
2022/03/13 06:07:47;;;;;;;2.20;1.73;;;8.90;99.90;;;;;;5044385;28;20041;-61
2022/03/13 06:10:20;;;;;;;3.95;2.10;;;8.90;99.90;;;;;;5029284;28;20080;-60
2022/03/13 06:12:47;;;;;;;4.40;1.85;;;8.90;99.90;;;;;;5051421;28;20090;-60
2022/03/13 06:15:14;;;;;;;2.88;1.80;;;8.90;99.90;;;;;;5051903;28;20103;-60
2022/03/13 06:17:42;;;;;;;2.65;1.58;;;9.00;99.90;;;;;;5041515;28;20190;-59
2022/03/13 06:20:13;;;;;;;2.75;1.52;;;8.90;99.90;;;;;;5045672;28;20339;-60
2022/03/13 06:22:40;;;;;;;3.20;1.40;;;9.00;99.90;;;;;;5030369;28;20049;-60
2022/03/13 06:25:08;;;;;;;1.83;1.30;;;8.90;99.90;;;;;;5030296;28;20088;-60
2022/03/13 06:27:36;;;;;;;1.80;1.40;;;9.00;99.90;;;;;;5057825;28;20060;-60
2022/03/13 06:30:08;;;;;;;2.50;1.90;;;8.90;99.90;;;;;;5051541;28;20049;-60
2022/03/13 06:32:35;;;;;;;2.90;1.65;;;8.90;99.90;;;;;;5044927;28;20447;-60
2022/03/13 06:35:02;;;;;;;2.00;1.48;;;9.00;99.90;;;;;;5056921;28;20885;-60
2022/03/13 06:37:29;;;;;;;2.40;1.70;;;9.00;99.90;;;;;;5006941;28;20148;-60
2022/03/13 06:39:56;;;;;;;2.08;1.20;;;9.00;99.90;;;;;;5032236;28;20044;-60
2022/03/13 06:42:22;;;;;;;2.45;1.50;;;9.00;99.90;;;;;;5049423;28;20147;-60
2022/03/13 06:44:49;;;;;;;1.88;1.50;;;9.10;99.90;;;;;;5053607;28;20049;-60
2022/03/13 06:47:16;;;;;;;2.25;1.33;;;9.10;99.90;;;;;;5048118;28;20103;-59
2022/03/13 06:49:43;;;;;;;4.07;2.05;;;9.10;99.90;;;;;;5057525;28;20131;-59
2022/03/13 06:52:10;;;;;;;3.58;1.42;;;9.20;99.90;;;;;;5058156;28;20072;-60
2022/03/13 06:54:37;;;;;;;2.80;1.65;;;9.20;99.90;;;;;;5029229;28;20467;-60
2022/03/13 06:57:04;;;;;;;2.17;1.48;;;9.20;99.90;;;;;;5047273;28;20055;-60
2022/03/13 06:59:30;;;;;;;2.20;1.40;;;9.20;99.90;;;;;;5033198;28;20568;-59
2022/03/13 07:01:57;;;;;;;2.15;1.50;;;9.20;99.90;;;;;;5049465;28;20663;-60
2022/03/13 07:04:24;;;;;;;1.65;1.20;;;9.20;99.90;;;;;;5048068;28;20140;-60
2022/03/13 07:06:51;;;;;;;2.65;1.52;;;9.30;99.90;;;;;;5048088;28;20048;-60
2022/03/13 07:09:18;;;;;;;2.22;1.15;;;9.30;99.90;;;;;;5050668;28;20156;-60
2022/03/13 07:11:49;;;;;;;2.83;1.88;;;9.40;99.90;;;;;;5051393;28;20297;-60
2022/03/13 07:14:17;;;;;;;1.80;1.23;;;9.40;99.90;;;;;;5052317;28;20080;-60
2022/03/13 07:16:44;;;;;;;1.98;1.45;;;9.40;99.90;;;;;;5049278;28;20131;-60
2022/03/13 07:19:11;;;;;;;3.33;1.58;;;9.50;99.90;;;;;;5047520;28;20104;-60
2022/03/13 07:21:38;;;;;;;2.05;1.40;;;9.50;99.90;;;;;;5046689;28;20127;-60
2022/03/13 07:24:05;;;;;;;1.77;1.30;;;9.50;99.90;;;;;;5048987;28;20090;-60
2022/03/13 07:26:32;;;;;;;3.25;1.50;;;9.60;99.90;;;;;;5049180;28;20080;-61
2022/03/13 07:29:02;;;;;;;1.67;1.27;;;9.60;99.90;;;;;;5048435;28;20118;-60
2022/03/13 07:31:30;;;;;;;1.90;1.20;;;9.60;99.90;;;;;;5052369;28;20091;-59
2022/03/13 07:33:57;;;;;;;2.60;1.48;;;9.60;99.90;;;;;;5049284;28;20107;-60
2022/03/13 07:36:23;;;;;;;2.95;1.52;;;9.60;99.90;;;;;;5049183;28;20092;-60
2022/03/13 07:38:50;;;;;;;1.92;1.35;;;9.60;99.90;;;;;;5050086;28;20504;-60
2022/03/13 07:41:17;;;;;;;2.47;1.65;;;9.70;99.90;;;;;;5048491;28;20232;-60
2022/03/13 07:43:44;;;;;;;2.50;1.52;;;9.70;99.90;;;;;;5032490;28;20072;-60
2022/03/13 07:46:11;;;;;;;2.03;1.50;;;9.70;99.90;;;;;;5048774;28;20271;-60
2022/03/13 07:48:38;;;;;;;1.83;1.33;;;9.60;99.90;;;;;;5046659;28;20064;-61
2022/03/13 07:51:06;;;;;;;2.92;1.63;;;9.70;99.90;;;;;;5046586;28;20132;-60
2022/03/13 07:53:32;;;;;;;2.17;1.30;;;9.70;99.90;;;;;;5045829;28;20052;-59
2022/03/13 07:55:59;;;;;;;1.65;1.25;;;9.70;99.90;;;;;;5048361;28;20533;-60
2022/03/13 07:58:26;;;;;;;1.88;1.08;;;9.70;99.90;;;;;;5026082;28;20083;-60
2022/03/13 08:00:53;;;;;;;1.40;1.13;;;9.70;99.90;;;;;;5045572;28;20081;-60
2022/03/13 08:03:24;;;;;;;2.25;1.17;;;9.80;99.90;;;;;;5047154;28;20048;-61
2022/03/13 08:05:52;;;;;;;2.38;1.38;;;9.80;99.90;;;;;;5045683;28;20516;-61
2022/03/13 08:08:19;;;;;;;2.03;1.33;;;9.90;99.90;;;;;;5031970;28;21028;-60
2022/03/13 08:10:46;;;;;;;2.03;1.08;;;9.90;99.90;;;;;;5046091;28;20131;-59
2022/03/13 08:13:12;;;;;;;2.47;1.40;;;9.90;99.90;;;;;;5049374;28;20050;-60
2022/03/13 08:15:39;;;;;;;2.30;1.17;;;10.00;99.90;;;;;;5047822;28;20158;-60
2022/03/13 08:18:06;;;;;;;5.32;1.35;;;10.10;99.90;;;;;;5048510;28;20275;-59
2022/03/13 08:20:33;;;;;;;2.53;1.55;;;10.10;99.90;;;;;;5047067;28;20060;-60
2022/03/13 08:23:00;;;;;;;1.88;1.10;;;10.20;99.90;;;;;;5051233;28;20444;-61
2022/03/13 08:25:27;;;;;;;2.38;0.93;;;10.30;99.90;;;;;;5049230;28;20147;-62
2022/03/13 08:27:54;;;;;;;2.67;1.63;;;10.40;99.90;;;;;;5046277;28;20068;-60
2022/03/13 08:30:22;;;;;;;1.75;1.20;;;10.50;99.90;;;;;;5030850;28;20164;-60
2022/03/13 08:32:50;;;;;;;1.98;1.10;;;10.60;99.90;;;;;;5042771;28;20468;-60
2022/03/13 08:35:17;;;;;;;2.92;1.40;;;10.70;99.90;;;;;;5045850;28;20512;-60
2022/03/13 08:37:44;;;;;;;3.40;1.40;;;10.80;99.90;;;;;;5045478;28;20224;-60
2022/03/13 08:40:12;;;;;;;1.70;1.20;;;11.00;99.90;;;;;;5045693;28;20113;-60
2022/03/13 08:42:38;;;;;;;1.38;1.00;;;11.10;99.90;;;;;;5027225;28;20136;-59
2022/03/13 08:45:06;;;;;;;2.40;1.35;;;11.20;99.90;;;;;;5044033;28;20468;-60
2022/03/13 08:47:32;;;;;;;2.95;1.20;;;11.40;99.90;;;;;;5027501;28;20052;-60
2022/03/13 08:49:59;;;;;;;2.55;1.30;;;11.60;99.90;;;;;;5024512;28;20133;-60
2022/03/13 08:52:26;;;;;;;2.88;1.13;;;11.70;99.90;;;;;;5044933;28;20075;-60
2022/03/13 08:54:53;;;;;;;2.25;1.33;;;11.70;99.90;;;;;;5045798;28;20125;-60
2022/03/13 08:57:19;;;;;;;2.13;1.20;;;11.80;99.90;;;;;;5051203;28;20080;-60
2022/03/13 08:59:46;;;;;;;2.15;1.20;;;11.80;99.90;;;;;;5049099;28;20287;-60
2022/03/13 09:02:13;;;;;;;2.85;1.15;;;11.80;99.90;;;;;;5043664;28;20501;-59
2022/03/13 09:04:41;;;;;;;2.40;1.13;;;11.80;99.90;;;;;;5048393;28;20127;-60
2022/03/13 09:07:08;;;;;;;2.13;1.30;;;11.80;99.90;;;;;;5043144;28;20094;-60
2022/03/13 09:09:35;;;;;;;2.58;1.25;;;11.80;99.90;;;;;;5043147;28;20675;-60
2022/03/13 09:12:06;;;;;;;2.17;1.10;;;11.90;99.90;;;;;;5047177;28;20253;-61
2022/03/13 09:14:35;;;;;;;1.77;1.13;;;12.00;99.90;;;;;;5046160;28;20135;-60
2022/03/13 09:17:02;;;;;;;2.60;1.35;;;12.10;99.90;;;;;;5046072;28;20084;-60
2022/03/13 09:19:29;;;;;;;3.30;1.30;;;12.10;99.90;;;;;;5046756;28;20048;-60
2022/03/13 09:21:56;;;;;;;1.90;1.13;;;12.00;99.90;;;;;;5049572;28;20048;-60
2022/03/13 09:24:23;;;;;;;3.17;1.00;;;12.10;99.90;;;;;;5049333;28;20072;-58
2022/03/13 09:26:49;;;;;;;2.65;0.82;;;12.10;99.90;;;;;;5056770;28;20140;-60
2022/03/13 09:29:16;;;;;;;1.90;1.30;;;12.10;99.90;;;;;;5054281;28;20110;-59
2022/03/13 09:31:43;;;;;;;2.75;1.25;;;12.00;99.90;;;;;;5056087;28;20167;-61
2022/03/13 09:34:10;;;;;;;2.03;1.20;;;12.00;99.90;;;;;;5055748;28;20041;-60
2022/03/13 09:36:42;;;;;;;3.75;1.40;;;11.90;99.90;;;;;;5056596;28;20088;-60
2022/03/13 09:39:09;;;;;;;2.80;1.10;;;11.90;99.90;;;;;;5056842;28;20102;-60
2022/03/13 09:41:39;;;;;;;3.13;1.20;;;12.00;99.90;;;;;;5056128;28;20116;-60
2022/03/13 09:44:07;;;;;;;3.10;1.48;;;12.00;99.90;;;;;;5057514;28;20145;-60
2022/03/13 09:46:38;;;;;;;3.08;1.17;;;12.00;99.90;;;;;;5055608;28;20075;-60
2022/03/13 09:49:04;;;;;;;2.28;1.30;;;12.10;99.90;;;;;;5033430;28;20400;-61
2022/03/13 09:51:31;;;;;;;3.05;1.17;;;12.00;99.90;;;;;;5052998;28;20048;-61
2022/03/13 09:53:58;;;;;;;2.22;1.00;;;12.10;99.90;;;;;;5060816;28;20615;-61
2022/03/13 09:56:25;;;;;;;2.88;1.00;;;12.30;99.90;;;;;;5059841;28;20080;-60
2022/03/13 09:58:52;;;;;;;2.47;1.35;;;12.30;99.90;;;;;;5055172;28;20495;-60
2022/03/13 10:01:19;;;;;;;2.60;1.10;;;12.30;99.90;;;;;;5060678;28;20127;-60
2022/03/13 10:03:46;;;;;;;1.77;1.17;;;12.20;99.90;;;;;;5050068;28;20503;-60
2022/03/13 10:06:13;;;;;;;3.80;1.00;;;12.30;99.90;;;;;;5052291;28;20140;-60
2022/03/13 10:08:40;;;;;;;2.13;0.90;;;12.30;99.90;;;;;;5059381;28;20128;-60
2022/03/13 10:11:07;;;;;;;4.25;1.30;;;12.40;99.90;;;;;;5059098;28;20049;-60
2022/03/13 10:13:43;;;;;;;2.42;0.77;;;12.40;99.90;;;;;;5059201;28;20053;-60
2022/03/13 10:16:19;;;;;;;1.92;0.95;;;12.50;99.90;;;;;;5057752;28;20222;-60
2022/03/13 10:18:46;;;;;;;3.22;1.40;;;12.50;99.90;;;;;;5055511;28;20433;-60
2022/03/13 10:21:18;;;;;;;2.22;1.08;;;12.50;99.90;;;;;;5058671;28;20793;-60
2022/03/13 10:23:48;;;;;;;3.35;1.10;;;12.50;99.90;;;;;;5058271;28;20085;-60
2022/03/13 10:26:18;;;;;;;3.05;1.02;;;12.60;99.90;;;;;;5025323;28;20507;-59
2022/03/13 10:28:45;;;;;;;2.15;1.05;;;12.60;99.90;;;;;;5056478;28;20193;-60
2022/03/13 10:31:16;;;;;;;4.28;2.10;;;12.80;99.90;;;;;;5051684;28;20140;-60
2022/03/13 10:33:55;;;;;;;1.75;1.05;;;13.10;99.90;;;;;;5051921;28;20072;-60
2022/03/13 10:36:31;;;;;;;2.53;1.13;;;13.30;99.90;;;;;;5051205;28;20465;-60
2022/03/13 10:38:59;;;;;;;2.78;1.20;;;13.60;99.90;;;;;;5037411;28;20060;-60
2022/03/13 10:41:43;;;;;;;4.13;1.25;;;13.70;99.90;;;;;;5058465;28;20520;-60
2022/03/13 10:44:17;;;;;;;2.33;1.02;;;13.90;99.90;;;;;;5036815;28;20118;-59
2022/03/13 10:46:46;;;;;;;1.83;0.93;;;14.10;99.90;;;;;;5054785;28;20583;-60
2022/03/13 10:49:14;;;;;;;2.33;1.17;;;14.20;99.90;;;;;;5039761;28;20167;-60
2022/03/13 10:51:49;;;;;;;2.33;1.30;;;14.20;99.90;;;;;;5057544;28;20049;-59
2022/03/13 10:54:27;;;;;;;3.40;1.40;;;14.30;99.90;;;;;;5057704;28;20052;-58
2022/03/13 10:57:14;;;;;;;2.67;1.30;;;14.40;99.90;;;;;;5057003;28;20080;-60
2022/03/13 10:59:41;;;;;;;3.10;1.23;;;14.40;99.90;;;;;;5055208;28;20148;-60
2022/03/13 11:02:15;;;;;;;2.38;1.10;;;14.40;99.90;;;;;;5053852;28;20139;-62
2022/03/13 11:04:52;;;;;;;2.17;1.10;;;14.50;99.90;;;;;;5050642;28;20376;-61
2022/03/13 11:07:19;;;;;;;3.65;1.33;;;14.60;99.90;;;;;;5036805;28;20113;-61
2022/03/13 11:09:46;;;;;;;1.63;1.00;;;14.70;99.90;;;;;;5053267;28;20834;-62
2022/03/13 11:12:21;;;;;;;2.40;1.00;;;14.80;99.90;;;;;;5037247;28;20203;-62
2022/03/13 11:14:52;;;;;;;4.45;1.40;;;15.00;99.90;;;;;;5051721;28;20061;-60
2022/03/13 11:17:20;;;;;;;2.15;1.10;;;15.00;99.90;;;;;;5053753;28;20088;-60
2022/03/13 11:19:51;;;;;;;2.85;1.33;;;15.00;99.90;;;;;;5050232;28;20880;-59
2022/03/13 11:22:20;;;;;;;3.55;1.25;;;14.70;99.90;;;;;;5052134;28;20557;-60
2022/03/13 11:24:48;;;;;;;1.77;0.93;;;14.50;99.90;;;;;;5057418;28;20098;-60
2022/03/13 11:27:15;;;;;;;2.15;1.20;;;14.30;99.90;;;;;;5051630;28;20076;-60
2022/03/13 11:29:52;;;;;;;2.00;1.13;;;14.20;99.90;;;;;;5036663;28;20130;-59
2022/03/13 11:32:38;;;;;;;2.50;0.90;;;14.10;99.90;;;;;;5048496;28;20166;-60
2022/03/13 11:35:14;;;;;;;1.92;0.82;;;14.00;99.90;;;;;;5052036;28;20056;-62
2022/03/13 11:37:43;;;;;;;2.50;1.10;;;13.80;99.90;;;;;;5052169;28;20044;-60
2022/03/13 11:40:12;;;;;;;3.03;1.10;;;13.70;99.90;;;;;;5056613;28;20072;-59
2022/03/13 11:42:48;;;;;;;4.43;1.52;;;13.50;99.90;;;;;;5054302;28;20077;-60
2022/03/13 11:45:41;;;;;;;2.30;0.95;;;13.50;99.90;;;;;;5056268;28;20084;-59
2022/03/13 11:48:15;;;;;;;3.80;1.10;;;13.30;99.90;;;;;;5048187;28;20187;-59
2022/03/13 11:50:51;;;;;;;2.78;1.13;;;13.20;99.90;;;;;;5052371;28;20133;-62
2022/03/13 11:53:19;;;;;;;1.92;0.80;;;13.20;99.90;;;;;;5054829;28;20124;-60
2022/03/13 11:56:09;;;;;;;3.33;1.25;;;13.20;99.90;;;;;;5046125;28;20434;-61
2022/03/13 11:58:42;;;;;;;3.47;1.13;;;13.20;99.90;;;;;;5048823;28;20067;-61
2022/03/13 12:01:20;;;;;;;1.58;0.80;;;13.10;99.90;;;;;;5045635;28;20213;-60
2022/03/13 12:04:14;;;;;;;2.25;0.90;;;13.00;99.90;;;;;;5028256;28;20135;-61
2022/03/13 12:06:48;;;;;;;2.83;1.02;;;12.90;99.90;;;;;;5043423;28;20484;-60
2022/03/13 12:09:29;;;;;;;2.92;1.30;;;12.90;99.90;;;;;;5046106;28;20056;-61
2022/03/13 12:11:56;;;;;;;3.53;1.17;;;12.80;99.90;;;;;;5045403;28;20550;-60
2022/03/13 12:14:56;;;;;;;2.83;1.30;;;12.60;99.90;;;;;;5046503;28;20091;-61
2022/03/13 12:17:29;;;;;;;2.25;1.08;;;12.40;99.90;;;;;;5045985;28;20542;-59
2022/03/13 12:19:59;;;;;;;5.15;1.58;;;12.20;99.90;;;;;;5046278;28;20087;-60
2022/03/13 12:22:27;;;;;;;3.92;1.40;;;11.90;99.90;;;;;;5047491;28;20144;-60
2022/03/13 12:24:56;;;;;;;4.45;1.23;;;11.70;99.90;;;;;;5042679;28;20467;-60
2022/03/13 12:27:23;;;;;;;2.95;1.08;;;11.50;99.90;;;;;;5046635;28;20322;-60
2022/03/13 12:29:58;;;;;;;3.83;1.30;;;11.40;99.90;;;;;;5046212;28;20421;-61
2022/03/13 12:32:34;;;;;;;1.90;0.90;;;11.40;99.90;;;;;;5046414;28;20045;-60
2022/03/13 12:35:02;;;;;;;2.50;0.85;;;11.40;99.90;;;;;;5047071;28;20593;-59
2022/03/13 12:37:29;;;;;;;3.03;1.20;;;11.40;99.90;;;;;;5045345;28;20063;-60
2022/03/13 12:40:00;;;;;;;2.58;0.93;;;11.30;99.90;;;;;;5045831;28;20597;-60
2022/03/13 12:42:30;;;;;;;3.35;1.40;;;11.30;99.90;;;;;;5049977;28;20049;-60
2022/03/13 12:45:00;;;;;;;2.22;0.93;;;11.40;99.90;;;;;;5046850;28;20135;-60
2022/03/13 12:47:27;;;;;;;3.50;0.93;;;11.40;99.90;;;;;;5041784;28;20057;-60
2022/03/13 12:49:58;;;;;;;2.58;0.80;;;11.40;99.90;;;;;;5024850;28;20531;-60
2022/03/13 12:52:26;;;;;;;1.85;0.95;;;11.40;99.90;;;;;;5028786;28;20317;-60
2022/03/13 12:54:57;;;;;;;3.38;1.10;;;11.40;99.90;;;;;;5031270;28;20539;-60
2022/03/13 12:57:23;;;;;;;1.65;0.88;;;11.40;99.90;;;;;;5043991;28;20522;-60
2022/03/13 12:59:51;;;;;;;2.03;0.85;;;11.50;99.90;;;;;;5042098;28;20118;-60
2022/03/13 13:02:32;;;;;;;1.92;0.85;;;11.50;99.90;;;;;;5043041;28;20075;-60